x

Lake Of The Woods (45148) Weather Station

8:00am - Wed 27th Aug 2014 All times are UTC.

  • Wind
    9mph, 11mph gusts
  • Sea Temp 68°f
  • Air Temp 57°f
  • Sea Pressure 1022.3mb

More Historic Weather Station data

Upgrade to MSW Pro to gain access to the past 30 days of data for over 8000 Wavebouys and Weather Stations around the globe.

Join Pro

Comparision Forecast

View Surf forecast
   
Wed 08/27 8:00am 9 11 mph 1022.3mb 68f 57f
7:00am 13 16 mph 1021.8mb 68f 57f
6:00am 7 9 mph 1021.8mb 68f 57f
5:00am 9 11 mph 1021.6mb 68f 57f
4:00am 9 13 mph 1021.4mb 68f 58f
3:00am 11 13 mph 1021.3mb 68f 58f
2:00am 11 13 mph 1021.1mb 68f 58f
1:00am 11 13 mph 1020.8mb 68f 60f
12:00am 13 16 mph 1020.8mb 68f 60f
Tue 08/26 11:00pm 13 18 mph 1020.9mb 68f 60f
10:00pm 13 18 mph 1020.4mb 68f 60f
9:00pm 13 16 mph 1020.7mb 68f 59f
8:00pm 13 18 mph 1020.8mb 68f 59f
7:00pm 13 18 mph 1021.1mb 68f 58f
6:00pm 13 18 mph 1021.2mb 68f 57f
5:00pm 13 18 mph 1021.2mb 68f 56f
4:00pm 13 20 mph 1021.2mb 68f 53f
3:00pm 13 18 mph 1020.9mb 68f 52f
2:00pm 13 18 mph 1020mb 68f 51f
1:00pm 16 20 mph 1019.9mb 68f 51f
12:00pm 16 20 mph 1018.6mb 68f 51f
11:00am 16 20 mph 1017.7mb 68f 51f
10:00am 20 25 mph 1017.2mb 68f 51f
9:00am 18 25 mph 1016.9mb 68f 52f
8:00am 18 22 mph 1016.7mb 69f 52f
7:00am 16 22 mph 1015.9mb 69f 53f
6:00am 18 25 mph 1015.6mb 69f 53f
5:00am 16 20 mph 1014.9mb 69f 53f
4:00am 18 22 mph 1014.5mb 69f 53f
3:00am 16 25 mph 1013.7mb 69f 54f
2:00am 13 20 mph 1013.1mb 69f 54f
1:00am 20 27 mph 1012.4mb 69f 56f
12:00am 22 29 mph 1011.7mb 69f 57f
Mon 08/25 11:00pm 20 27 mph 1011mb 69f 58f
10:00pm 22 27 mph 1010.2mb 69f 58f
9:00pm 22 27 mph 1009.6mb 69f 59f
8:00pm 25 29 mph 1008.9mb 69f 59f
7:00pm 22 29 mph 1008.2mb 70f 59f
6:00pm 22 29 mph 1007.2mb 70f 59f
5:00pm 22 27 mph 1006.6mb 70f 60f
4:00pm 22 29 mph 1006.5mb 70f 59f
3:00pm 22 27 mph 1006.2mb 70f 60f
2:00pm 18 22 mph 1005.9mb 70f 61f
1:00pm 22 29 mph 1005.7mb 70f 62f
12:00pm 22 29 mph 1005.6mb 70f 62f
11:00am 22 29 mph 1005.5mb 70f 64f
10:00am 20 27 mph 1005.5mb 70f 67f
9:00am 16 22 mph 1005.9mb 70f 67f
8:00am 13 16 mph 1006.1mb 70f 68f
7:00am 9 11 mph 1006mb 70f 68f
6:00am 11 13 mph 1006.7mb 70f 69f
5:00am 11 13 mph 1007mb 70f 70f
4:00am 16 20 mph 1006.7mb 71f 72f
3:00am 20 25 mph 1006.3mb 71f 74f
2:00am 13 18 mph 1005.4mb 71f 74f
1:00am 13 16 mph 1005.3mb 71f 74f
12:00am 13
mph
1004.9mb 71f 74f
Sun 08/24 11:00pm 13 18 mph 1005.6mb 71f 75f
10:00pm 13 18 mph 1005.7mb 71f 74f
9:00pm 11 13 mph 1006.1mb 70f 73f
8:00pm 13 16 mph 1006.6mb 70f 72f
7:00pm 18 22 mph 1007mb 70f 73f
6:00pm 20 27 mph 1006.7mb 70f 75f
5:00pm 16 22 mph 1007.2mb 70f 73f
4:00pm 18 27 mph 1007.1mb 70f 73f
3:00pm 22 29 mph 1006.2mb 70f 72f
2:00pm 18 25 mph 1006.4mb 71f 71f
1:00pm 20 27 mph 1007.1mb 71f 71f
12:00pm 20 27 mph 1007.8mb 71f 69f
11:00am 20 25 mph 1009.2mb 71f 68f
10:00am 16 22 mph 1010.3mb 71f 67f
9:00am 16 20 mph 1011.3mb 71f 65f
8:00am 18 20 mph 1012.6mb 71f 65f
7:00am 16 18 mph 1014.1mb 71f 65f
6:00am 16 20 mph 1015.1mb 71f 65f
5:00am 16 18 mph 1015.5mb 71f 66f
4:00am 18 25 mph 1015.9mb 71f 68f
3:00am 16 22 mph 1016.5mb 71f 69f
2:00am 18 20 mph 1017mb 71f 70f
1:00am 16 22 mph 1016.9mb 71f 70f
12:00am 13 20 mph 1017.3mb 71f 70f
Sat 08/23 11:00pm 16 20 mph 1017.5mb 71f 71f
10:00pm 13 16 mph 1017.8mb 71f 72f
9:00pm 13
mph
1018.2mb 71f 71f
8:00pm 13 16 mph 1018.2mb 71f 72f
7:00pm 13 16 mph 1018.6mb 71f 70f
6:00pm 9 11 mph 1018.8mb 71f 73f
5:00pm 7 9 mph 1019.1mb 72f 73f
4:00pm 9
mph
1019.2mb 71f 71f
3:00pm 9 11 mph 1019.6mb 71f 69f
2:00pm 7 9 mph 1019.3mb 71f 69f
1:00pm 7 9 mph 1019.3mb 71f 68f
12:00pm 7 9 mph 1019.1mb 71f 67f
11:00am 9 11 mph 1018.9mb 71f 67f
10:00am 9 11 mph 1019mb 71f 67f